sensor_id;sensor_type;location;lat;lon;timestamp;P1;durP1;ratioP1;P2;durP2;ratioP2
20393;SDS011;10356;50.544;9.642;2024-03-08T00:01:13;41.17;;;22.87;;
20393;SDS011;10356;50.544;9.642;2024-03-08T00:03:41;38.40;;;22.87;;
20393;SDS011;10356;50.544;9.642;2024-03-08T00:06:07;37.33;;;22.27;;
20393;SDS011;10356;50.544;9.642;2024-03-08T00:08:35;36.77;;;23.10;;
20393;SDS011;10356;50.544;9.642;2024-03-08T00:11:02;38.37;;;22.73;;
20393;SDS011;10356;50.544;9.642;2024-03-08T00:13:29;35.97;;;22.97;;
20393;SDS011;10356;50.544;9.642;2024-03-08T00:15:55;34.93;;;22.40;;
20393;SDS011;10356;50.544;9.642;2024-03-08T00:18:22;37.87;;;23.40;;
20393;SDS011;10356;50.544;9.642;2024-03-08T00:20:49;39.30;;;22.80;;
20393;SDS011;10356;50.544;9.642;2024-03-08T00:23:16;36.80;;;22.03;;
20393;SDS011;10356;50.544;9.642;2024-03-08T00:25:43;38.27;;;23.03;;
20393;SDS011;10356;50.544;9.642;2024-03-08T00:28:10;38.87;;;23.37;;
20393;SDS011;10356;50.544;9.642;2024-03-08T00:30:39;38.77;;;23.13;;
20393;SDS011;10356;50.544;9.642;2024-03-08T00:33:07;40.47;;;23.90;;
20393;SDS011;10356;50.544;9.642;2024-03-08T00:35:34;39.17;;;24.03;;
20393;SDS011;10356;50.544;9.642;2024-03-08T00:38:00;39.03;;;23.33;;
20393;SDS011;10356;50.544;9.642;2024-03-08T00:40:27;39.70;;;23.07;;
20393;SDS011;10356;50.544;9.642;2024-03-08T00:42:55;38.03;;;22.23;;
20393;SDS011;10356;50.544;9.642;2024-03-08T00:45:22;42.23;;;24.80;;
20393;SDS011;10356;50.544;9.642;2024-03-08T00:47:48;43.00;;;24.77;;
20393;SDS011;10356;50.544;9.642;2024-03-08T00:50:15;39.93;;;23.97;;
20393;SDS011;10356;50.544;9.642;2024-03-08T00:52:43;40.60;;;25.10;;
20393;SDS011;10356;50.544;9.642;2024-03-08T00:55:09;41.67;;;24.63;;
20393;SDS011;10356;50.544;9.642;2024-03-08T00:57:36;38.63;;;23.73;;
20393;SDS011;10356;50.544;9.642;2024-03-08T01:00:05;41.13;;;23.47;;
20393;SDS011;10356;50.544;9.642;2024-03-08T01:02:36;41.10;;;23.97;;
20393;SDS011;10356;50.544;9.642;2024-03-08T01:05:03;44.93;;;25.30;;
20393;SDS011;10356;50.544;9.642;2024-03-08T01:07:32;42.87;;;24.60;;
20393;SDS011;10356;50.544;9.642;2024-03-08T01:09:58;41.20;;;23.70;;
20393;SDS011;10356;50.544;9.642;2024-03-08T01:12:25;43.43;;;25.53;;
20393;SDS011;10356;50.544;9.642;2024-03-08T01:14:52;38.87;;;24.30;;
20393;SDS011;10356;50.544;9.642;2024-03-08T01:17:20;40.83;;;24.00;;
20393;SDS011;10356;50.544;9.642;2024-03-08T01:19:46;43.57;;;26.03;;
20393;SDS011;10356;50.544;9.642;2024-03-08T01:22:13;42.13;;;25.00;;
20393;SDS011;10356;50.544;9.642;2024-03-08T01:24:39;42.23;;;24.60;;
20393;SDS011;10356;50.544;9.642;2024-03-08T01:27:06;38.43;;;22.93;;
20393;SDS011;10356;50.544;9.642;2024-03-08T01:29:34;41.73;;;23.87;;
20393;SDS011;10356;50.544;9.642;2024-03-08T01:32:00;39.90;;;24.53;;
20393;SDS011;10356;50.544;9.642;2024-03-08T01:34:28;41.23;;;23.37;;
20393;SDS011;10356;50.544;9.642;2024-03-08T01:36:55;40.00;;;24.03;;
20393;SDS011;10356;50.544;9.642;2024-03-08T01:39:22;46.23;;;26.30;;
20393;SDS011;10356;50.544;9.642;2024-03-08T01:41:49;40.50;;;23.43;;
20393;SDS011;10356;50.544;9.642;2024-03-08T01:44:15;41.80;;;24.13;;
20393;SDS011;10356;50.544;9.642;2024-03-08T01:46:43;41.83;;;24.57;;
20393;SDS011;10356;50.544;9.642;2024-03-08T01:49:10;44.07;;;24.63;;
20393;SDS011;10356;50.544;9.642;2024-03-08T01:51:39;41.70;;;23.73;;
20393;SDS011;10356;50.544;9.642;2024-03-08T01:54:07;42.37;;;24.20;;
20393;SDS011;10356;50.544;9.642;2024-03-08T01:56:35;42.13;;;25.53;;
20393;SDS011;10356;50.544;9.642;2024-03-08T01:59:03;45.93;;;25.13;;
20393;SDS011;10356;50.544;9.642;2024-03-08T02:01:32;45.50;;;24.80;;
20393;SDS011;10356;50.544;9.642;2024-03-08T02:04:02;42.97;;;24.77;;
20393;SDS011;10356;50.544;9.642;2024-03-08T02:06:28;45.33;;;25.13;;
20393;SDS011;10356;50.544;9.642;2024-03-08T02:08:56;41.17;;;24.83;;
20393;SDS011;10356;50.544;9.642;2024-03-08T02:11:23;44.73;;;26.60;;
20393;SDS011;10356;50.544;9.642;2024-03-08T02:13:49;47.07;;;25.93;;
20393;SDS011;10356;50.544;9.642;2024-03-08T02:16:19;44.30;;;25.60;;
20393;SDS011;10356;50.544;9.642;2024-03-08T02:18:47;45.70;;;26.83;;
20393;SDS011;10356;50.544;9.642;2024-03-08T02:21:15;47.77;;;27.43;;
20393;SDS011;10356;50.544;9.642;2024-03-08T02:23:43;47.27;;;26.43;;
20393;SDS011;10356;50.544;9.642;2024-03-08T02:26:10;49.13;;;25.07;;
20393;SDS011;10356;50.544;9.642;2024-03-08T02:28:36;46.37;;;26.73;;
20393;SDS011;10356;50.544;9.642;2024-03-08T02:31:03;42.73;;;24.90;;
20393;SDS011;10356;50.544;9.642;2024-03-08T02:33:33;46.10;;;26.17;;
20393;SDS011;10356;50.544;9.642;2024-03-08T02:35:59;48.33;;;25.57;;
20393;SDS011;10356;50.544;9.642;2024-03-08T02:38:27;44.23;;;25.07;;
20393;SDS011;10356;50.544;9.642;2024-03-08T02:40:54;42.30;;;23.87;;
20393;SDS011;10356;50.544;9.642;2024-03-08T02:43:21;48.27;;;25.53;;
20393;SDS011;10356;50.544;9.642;2024-03-08T02:45:49;46.17;;;24.63;;
20393;SDS011;10356;50.544;9.642;2024-03-08T02:48:18;43.57;;;24.77;;
20393;SDS011;10356;50.544;9.642;2024-03-08T02:50:46;45.90;;;25.13;;
20393;SDS011;10356;50.544;9.642;2024-03-08T02:53:12;46.23;;;24.87;;
20393;SDS011;10356;50.544;9.642;2024-03-08T02:55:41;44.10;;;25.27;;
20393;SDS011;10356;50.544;9.642;2024-03-08T02:58:08;44.67;;;24.67;;
20393;SDS011;10356;50.544;9.642;2024-03-08T03:00:35;43.60;;;24.87;;
20393;SDS011;10356;50.544;9.642;2024-03-08T03:03:02;42.63;;;24.60;;
20393;SDS011;10356;50.544;9.642;2024-03-08T03:05:29;43.00;;;25.50;;
20393;SDS011;10356;50.544;9.642;2024-03-08T03:07:56;43.27;;;25.47;;
20393;SDS011;10356;50.544;9.642;2024-03-08T03:10:23;41.07;;;24.90;;
20393;SDS011;10356;50.544;9.642;2024-03-08T03:12:52;48.53;;;25.90;;
20393;SDS011;10356;50.544;9.642;2024-03-08T03:15:18;42.63;;;24.43;;
20393;SDS011;10356;50.544;9.642;2024-03-08T03:17:46;43.77;;;24.97;;
20393;SDS011;10356;50.544;9.642;2024-03-08T03:20:13;44.93;;;26.57;;
20393;SDS011;10356;50.544;9.642;2024-03-08T03:22:47;43.03;;;24.60;;
20393;SDS011;10356;50.544;9.642;2024-03-08T03:25:16;43.97;;;25.10;;
20393;SDS011;10356;50.544;9.642;2024-03-08T03:27:48;43.33;;;24.70;;
20393;SDS011;10356;50.544;9.642;2024-03-08T03:30:16;43.73;;;24.47;;
20393;SDS011;10356;50.544;9.642;2024-03-08T03:32:46;48.40;;;24.73;;
20393;SDS011;10356;50.544;9.642;2024-03-08T03:35:13;46.40;;;25.00;;
20393;SDS011;10356;50.544;9.642;2024-03-08T03:37:41;44.13;;;24.70;;
20393;SDS011;10356;50.544;9.642;2024-03-08T03:40:10;45.77;;;25.20;;
20393;SDS011;10356;50.544;9.642;2024-03-08T03:42:38;41.40;;;23.73;;
20393;SDS011;10356;50.544;9.642;2024-03-08T03:45:05;44.63;;;23.67;;
20393;SDS011;10356;50.544;9.642;2024-03-08T03:47:33;42.97;;;23.23;;
20393;SDS011;10356;50.544;9.642;2024-03-08T03:49:59;47.87;;;25.43;;
20393;SDS011;10356;50.544;9.642;2024-03-08T03:52:28;45.40;;;23.43;;
20393;SDS011;10356;50.544;9.642;2024-03-08T03:54:54;46.83;;;25.73;;
20393;SDS011;10356;50.544;9.642;2024-03-08T03:57:21;45.13;;;25.17;;
20393;SDS011;10356;50.544;9.642;2024-03-08T03:59:48;46.20;;;25.47;;
20393;SDS011;10356;50.544;9.642;2024-03-08T04:02:16;43.20;;;24.60;;
20393;SDS011;10356;50.544;9.642;2024-03-08T04:04:44;42.97;;;24.53;;
20393;SDS011;10356;50.544;9.642;2024-03-08T04:07:10;46.10;;;25.53;;
20393;SDS011;10356;50.544;9.642;2024-03-08T04:09:37;47.60;;;26.10;;
20393;SDS011;10356;50.544;9.642;2024-03-08T04:12:03;42.50;;;24.77;;
20393;SDS011;10356;50.544;9.642;2024-03-08T04:14:31;43.10;;;24.57;;
20393;SDS011;10356;50.544;9.642;2024-03-08T04:16:58;44.33;;;25.67;;
20393;SDS011;10356;50.544;9.642;2024-03-08T04:19:24;45.27;;;24.47;;
20393;SDS011;10356;50.544;9.642;2024-03-08T04:21:53;42.37;;;24.37;;
20393;SDS011;10356;50.544;9.642;2024-03-08T04:24:19;46.27;;;26.03;;
20393;SDS011;10356;50.544;9.642;2024-03-08T04:26:46;50.27;;;25.60;;
20393;SDS011;10356;50.544;9.642;2024-03-08T04:29:12;44.47;;;25.83;;
20393;SDS011;10356;50.544;9.642;2024-03-08T04:31:39;48.67;;;27.43;;
20393;SDS011;10356;50.544;9.642;2024-03-08T04:34:06;46.63;;;25.33;;
20393;SDS011;10356;50.544;9.642;2024-03-08T04:36:33;49.83;;;26.63;;
20393;SDS011;10356;50.544;9.642;2024-03-08T04:39:01;50.97;;;27.47;;
20393;SDS011;10356;50.544;9.642;2024-03-08T04:41:28;50.43;;;27.17;;
20393;SDS011;10356;50.544;9.642;2024-03-08T04:43:55;44.13;;;26.53;;
20393;SDS011;10356;50.544;9.642;2024-03-08T04:46:22;48.87;;;27.50;;
20393;SDS011;10356;50.544;9.642;2024-03-08T04:48:49;51.87;;;27.37;;
20393;SDS011;10356;50.544;9.642;2024-03-08T04:51:15;54.17;;;28.00;;
20393;SDS011;10356;50.544;9.642;2024-03-08T04:53:44;44.17;;;25.57;;
20393;SDS011;10356;50.544;9.642;2024-03-08T04:56:12;53.43;;;27.20;;
20393;SDS011;10356;50.544;9.642;2024-03-08T04:58:38;52.10;;;27.77;;
20393;SDS011;10356;50.544;9.642;2024-03-08T05:01:05;52.47;;;27.80;;
20393;SDS011;10356;50.544;9.642;2024-03-08T05:03:35;49.27;;;25.23;;
20393;SDS011;10356;50.544;9.642;2024-03-08T05:06:02;50.23;;;28.07;;
20393;SDS011;10356;50.544;9.642;2024-03-08T05:08:29;50.67;;;27.43;;
20393;SDS011;10356;50.544;9.642;2024-03-08T05:10:55;46.10;;;26.07;;
20393;SDS011;10356;50.544;9.642;2024-03-08T05:13:24;52.03;;;27.90;;
20393;SDS011;10356;50.544;9.642;2024-03-08T05:15:52;50.93;;;27.90;;
20393;SDS011;10356;50.544;9.642;2024-03-08T05:18:19;48.13;;;27.37;;
20393;SDS011;10356;50.544;9.642;2024-03-08T05:20:46;51.23;;;27.00;;
20393;SDS011;10356;50.544;9.642;2024-03-08T05:23:13;46.50;;;25.50;;
20393;SDS011;10356;50.544;9.642;2024-03-08T05:25:40;50.77;;;27.20;;
20393;SDS011;10356;50.544;9.642;2024-03-08T05:28:07;58.50;;;29.37;;
20393;SDS011;10356;50.544;9.642;2024-03-08T05:30:35;51.60;;;27.03;;
20393;SDS011;10356;50.544;9.642;2024-03-08T05:33:01;61.43;;;29.33;;
20393;SDS011;10356;50.544;9.642;2024-03-08T05:35:29;57.00;;;28.97;;
20393;SDS011;10356;50.544;9.642;2024-03-08T05:37:55;55.43;;;28.87;;
20393;SDS011;10356;50.544;9.642;2024-03-08T05:40:23;53.70;;;28.13;;
20393;SDS011;10356;50.544;9.642;2024-03-08T05:42:49;52.93;;;27.90;;
20393;SDS011;10356;50.544;9.642;2024-03-08T05:45:15;51.63;;;27.97;;
20393;SDS011;10356;50.544;9.642;2024-03-08T05:47:43;52.70;;;28.07;;
20393;SDS011;10356;50.544;9.642;2024-03-08T05:50:11;58.07;;;29.77;;
20393;SDS011;10356;50.544;9.642;2024-03-08T05:52:37;56.40;;;29.73;;
20393;SDS011;10356;50.544;9.642;2024-03-08T05:55:04;55.43;;;28.40;;
20393;SDS011;10356;50.544;9.642;2024-03-08T05:57:32;52.70;;;28.00;;
20393;SDS011;10356;50.544;9.642;2024-03-08T05:59:59;51.73;;;27.47;;
20393;SDS011;10356;50.544;9.642;2024-03-08T06:02:25;58.93;;;29.57;;
20393;SDS011;10356;50.544;9.642;2024-03-08T06:04:53;57.23;;;29.53;;
20393;SDS011;10356;50.544;9.642;2024-03-08T06:07:19;56.77;;;29.23;;
20393;SDS011;10356;50.544;9.642;2024-03-08T06:09:46;51.40;;;28.20;;
20393;SDS011;10356;50.544;9.642;2024-03-08T06:12:13;53.60;;;28.17;;
20393;SDS011;10356;50.544;9.642;2024-03-08T06:14:43;52.07;;;28.17;;
20393;SDS011;10356;50.544;9.642;2024-03-08T06:17:10;60.33;;;30.80;;
20393;SDS011;10356;50.544;9.642;2024-03-08T06:19:36;53.57;;;28.47;;
20393;SDS011;10356;50.544;9.642;2024-03-08T06:22:04;51.73;;;28.10;;
20393;SDS011;10356;50.544;9.642;2024-03-08T06:24:31;56.97;;;30.23;;
20393;SDS011;10356;50.544;9.642;2024-03-08T06:26:58;53.50;;;26.93;;
20393;SDS011;10356;50.544;9.642;2024-03-08T06:29:25;52.97;;;28.70;;
20393;SDS011;10356;50.544;9.642;2024-03-08T06:31:51;53.53;;;28.93;;
20393;SDS011;10356;50.544;9.642;2024-03-08T06:34:18;54.50;;;28.67;;
20393;SDS011;10356;50.544;9.642;2024-03-08T06:36:45;55.73;;;29.40;;
20393;SDS011;10356;50.544;9.642;2024-03-08T06:39:12;53.63;;;28.77;;
20393;SDS011;10356;50.544;9.642;2024-03-08T06:41:39;57.90;;;30.63;;
20393;SDS011;10356;50.544;9.642;2024-03-08T06:44:05;54.13;;;29.70;;
20393;SDS011;10356;50.544;9.642;2024-03-08T06:46:33;55.47;;;30.50;;
20393;SDS011;10356;50.544;9.642;2024-03-08T06:48:59;53.13;;;28.33;;
20393;SDS011;10356;50.544;9.642;2024-03-08T06:51:26;55.70;;;29.33;;
20393;SDS011;10356;50.544;9.642;2024-03-08T06:53:52;58.27;;;31.07;;
20393;SDS011;10356;50.544;9.642;2024-03-08T06:56:20;53.00;;;28.93;;
20393;SDS011;10356;50.544;9.642;2024-03-08T06:58:47;57.07;;;29.77;;
20393;SDS011;10356;50.544;9.642;2024-03-08T07:01:14;54.07;;;28.67;;
20393;SDS011;10356;50.544;9.642;2024-03-08T07:03:41;55.77;;;30.83;;
20393;SDS011;10356;50.544;9.642;2024-03-08T07:06:09;58.53;;;31.53;;
20393;SDS011;10356;50.544;9.642;2024-03-08T07:08:35;63.03;;;34.13;;
20393;SDS011;10356;50.544;9.642;2024-03-08T07:11:02;60.97;;;32.37;;
20393;SDS011;10356;50.544;9.642;2024-03-08T07:13:30;55.10;;;30.63;;
20393;SDS011;10356;50.544;9.642;2024-03-08T07:15:57;52.83;;;29.07;;
20393;SDS011;10356;50.544;9.642;2024-03-08T07:18:25;53.20;;;29.30;;
20393;SDS011;10356;50.544;9.642;2024-03-08T07:20:54;56.07;;;29.83;;
20393;SDS011;10356;50.544;9.642;2024-03-08T07:23:21;57.23;;;29.70;;
20393;SDS011;10356;50.544;9.642;2024-03-08T07:26:02;55.70;;;29.97;;
20393;SDS011;10356;50.544;9.642;2024-03-08T07:28:28;53.13;;;29.27;;
20393;SDS011;10356;50.544;9.642;2024-03-08T07:30:57;49.73;;;28.33;;
20393;SDS011;10356;50.544;9.642;2024-03-08T07:33:37;50.03;;;26.97;;
20393;SDS011;10356;50.544;9.642;2024-03-08T07:36:04;47.47;;;27.77;;
20393;SDS011;10356;50.544;9.642;2024-03-08T07:38:31;52.10;;;26.80;;
20393;SDS011;10356;50.544;9.642;2024-03-08T07:40:57;47.77;;;26.80;;
20393;SDS011;10356;50.544;9.642;2024-03-08T07:43:24;51.20;;;26.23;;
20393;SDS011;10356;50.544;9.642;2024-03-08T07:45:50;47.50;;;26.70;;
20393;SDS011;10356;50.544;9.642;2024-03-08T07:48:19;42.27;;;24.80;;
20393;SDS011;10356;50.544;9.642;2024-03-08T07:50:46;43.20;;;24.87;;
20393;SDS011;10356;50.544;9.642;2024-03-08T07:53:14;45.00;;;24.90;;
20393;SDS011;10356;50.544;9.642;2024-03-08T07:55:41;41.87;;;23.53;;
20393;SDS011;10356;50.544;9.642;2024-03-08T07:58:09;41.23;;;23.93;;
20393;SDS011;10356;50.544;9.642;2024-03-08T08:00:36;34.43;;;21.90;;
20393;SDS011;10356;50.544;9.642;2024-03-08T08:03:03;34.13;;;22.43;;
20393;SDS011;10356;50.544;9.642;2024-03-08T08:05:31;31.47;;;19.13;;
20393;SDS011;10356;50.544;9.642;2024-03-08T08:08:00;32.90;;;19.77;;
20393;SDS011;10356;50.544;9.642;2024-03-08T08:10:28;32.27;;;18.37;;
20393;SDS011;10356;50.544;9.642;2024-03-08T08:12:54;27.83;;;17.73;;
20393;SDS011;10356;50.544;9.642;2024-03-08T08:15:22;27.20;;;16.10;;
20393;SDS011;10356;50.544;9.642;2024-03-08T08:17:48;26.43;;;15.87;;
20393;SDS011;10356;50.544;9.642;2024-03-08T08:20:15;31.27;;;17.23;;
20393;SDS011;10356;50.544;9.642;2024-03-08T08:22:44;28.30;;;17.30;;
20393;SDS011;10356;50.544;9.642;2024-03-08T08:25:12;31.20;;;17.10;;
20393;SDS011;10356;50.544;9.642;2024-03-08T08:27:40;26.10;;;15.90;;
20393;SDS011;10356;50.544;9.642;2024-03-08T08:30:08;26.03;;;15.93;;
20393;SDS011;10356;50.544;9.642;2024-03-08T08:32:36;31.90;;;16.30;;
20393;SDS011;10356;50.544;9.642;2024-03-08T08:35:04;27.30;;;16.57;;
20393;SDS011;10356;50.544;9.642;2024-03-08T08:37:32;24.57;;;14.50;;
20393;SDS011;10356;50.544;9.642;2024-03-08T08:40:02;22.70;;;14.57;;
20393;SDS011;10356;50.544;9.642;2024-03-08T08:42:34;26.93;;;15.47;;
20393;SDS011;10356;50.544;9.642;2024-03-08T08:45:00;24.77;;;14.97;;
20393;SDS011;10356;50.544;9.642;2024-03-08T08:47:29;29.20;;;16.73;;
20393;SDS011;10356;50.544;9.642;2024-03-08T08:49:55;25.93;;;16.13;;
20393;SDS011;10356;50.544;9.642;2024-03-08T08:52:22;26.77;;;15.47;;
20393;SDS011;10356;50.544;9.642;2024-03-08T08:54:48;23.80;;;15.63;;
20393;SDS011;10356;50.544;9.642;2024-03-08T08:57:17;25.20;;;15.00;;
20393;SDS011;10356;50.544;9.642;2024-03-08T08:59:44;24.50;;;15.97;;
20393;SDS011;10356;50.544;9.642;2024-03-08T09:02:10;26.83;;;16.03;;
20393;SDS011;10356;50.544;9.642;2024-03-08T09:04:37;26.50;;;15.90;;
20393;SDS011;10356;50.544;9.642;2024-03-08T09:07:04;29.50;;;17.13;;
20393;SDS011;10356;50.544;9.642;2024-03-08T09:09:31;25.07;;;16.37;;
20393;SDS011;10356;50.544;9.642;2024-03-08T09:11:58;26.77;;;16.67;;
20393;SDS011;10356;50.544;9.642;2024-03-08T09:14:25;27.77;;;15.93;;
20393;SDS011;10356;50.544;9.642;2024-03-08T09:16:52;24.17;;;15.97;;
20393;SDS011;10356;50.544;9.642;2024-03-08T09:19:18;25.03;;;16.33;;
20393;SDS011;10356;50.544;9.642;2024-03-08T09:21:45;22.27;;;15.00;;
20393;SDS011;10356;50.544;9.642;2024-03-08T09:24:12;27.80;;;15.70;;
20393;SDS011;10356;50.544;9.642;2024-03-08T09:26:38;26.47;;;16.67;;
20393;SDS011;10356;50.544;9.642;2024-03-08T09:29:08;26.47;;;15.63;;
20393;SDS011;10356;50.544;9.642;2024-03-08T09:31:37;23.87;;;14.43;;
20393;SDS011;10356;50.544;9.642;2024-03-08T09:34:04;22.27;;;14.40;;
20393;SDS011;10356;50.544;9.642;2024-03-08T09:36:33;24.70;;;15.10;;
20393;SDS011;10356;50.544;9.642;2024-03-08T09:39:00;19.97;;;13.43;;
20393;SDS011;10356;50.544;9.642;2024-03-08T09:41:27;20.50;;;13.70;;
20393;SDS011;10356;50.544;9.642;2024-03-08T09:43:55;22.67;;;14.47;;
20393;SDS011;10356;50.544;9.642;2024-03-08T09:46:24;23.13;;;13.80;;
20393;SDS011;10356;50.544;9.642;2024-03-08T09:48:53;20.03;;;13.50;;
20393;SDS011;10356;50.544;9.642;2024-03-08T09:51:20;20.10;;;12.73;;
20393;SDS011;10356;50.544;9.642;2024-03-08T09:53:53;22.70;;;13.97;;
20393;SDS011;10356;50.544;9.642;2024-03-08T09:56:20;21.03;;;13.50;;
20393;SDS011;10356;50.544;9.642;2024-03-08T09:58:48;22.10;;;13.30;;
20393;SDS011;10356;50.544;9.642;2024-03-08T10:01:39;19.07;;;12.47;;
20393;SDS011;10356;50.544;9.642;2024-03-08T10:04:08;18.33;;;11.93;;
20393;SDS011;10356;50.544;9.642;2024-03-08T10:06:35;21.13;;;13.33;;
20393;SDS011;10356;50.544;9.642;2024-03-08T10:09:02;20.27;;;12.83;;
20393;SDS011;10356;50.544;9.642;2024-03-08T10:11:31;20.70;;;12.80;;
20393;SDS011;10356;50.544;9.642;2024-03-08T10:13:58;17.80;;;11.40;;
20393;SDS011;10356;50.544;9.642;2024-03-08T10:16:26;23.03;;;13.07;;
20393;SDS011;10356;50.544;9.642;2024-03-08T10:18:53;21.03;;;13.03;;
20393;SDS011;10356;50.544;9.642;2024-03-08T10:21:23;22.03;;;13.30;;
20393;SDS011;10356;50.544;9.642;2024-03-08T10:23:50;21.47;;;12.80;;
20393;SDS011;10356;50.544;9.642;2024-03-08T10:26:17;20.03;;;13.10;;
20393;SDS011;10356;50.544;9.642;2024-03-08T10:28:46;18.83;;;12.53;;
20393;SDS011;10356;50.544;9.642;2024-03-08T10:31:13;18.47;;;12.47;;
20393;SDS011;10356;50.544;9.642;2024-03-08T10:33:41;20.03;;;13.47;;
20393;SDS011;10356;50.544;9.642;2024-03-08T10:36:08;19.70;;;13.47;;
20393;SDS011;10356;50.544;9.642;2024-03-08T10:38:37;23.87;;;14.20;;
20393;SDS011;10356;50.544;9.642;2024-03-08T10:41:05;21.20;;;13.50;;
20393;SDS011;10356;50.544;9.642;2024-03-08T10:43:44;20.43;;;13.77;;
20393;SDS011;10356;50.544;9.642;2024-03-08T10:46:21;22.27;;;13.93;;
20393;SDS011;10356;50.544;9.642;2024-03-08T10:48:56;23.33;;;14.60;;
20393;SDS011;10356;50.544;9.642;2024-03-08T10:51:28;21.57;;;13.47;;
20393;SDS011;10356;50.544;9.642;2024-03-08T10:53:57;21.67;;;14.77;;
20393;SDS011;10356;50.544;9.642;2024-03-08T10:56:24;21.67;;;14.43;;
20393;SDS011;10356;50.544;9.642;2024-03-08T10:58:52;23.50;;;14.17;;
20393;SDS011;10356;50.544;9.642;2024-03-08T11:01:20;23.33;;;13.57;;
20393;SDS011;10356;50.544;9.642;2024-03-08T11:03:47;19.10;;;13.47;;
20393;SDS011;10356;50.544;9.642;2024-03-08T11:06:18;20.10;;;13.17;;
20393;SDS011;10356;50.544;9.642;2024-03-08T11:08:48;20.67;;;13.40;;
20393;SDS011;10356;50.544;9.642;2024-03-08T11:11:27;19.10;;;12.80;;
20393;SDS011;10356;50.544;9.642;2024-03-08T11:13:56;19.90;;;13.83;;
20393;SDS011;10356;50.544;9.642;2024-03-08T11:16:39;17.73;;;12.10;;
20393;SDS011;10356;50.544;9.642;2024-03-08T11:21:57;17.30;;;12.33;;
20393;SDS011;10356;50.544;9.642;2024-03-08T11:24:24;19.17;;;13.00;;
20393;SDS011;10356;50.544;9.642;2024-03-08T11:26:55;19.77;;;13.03;;
20393;SDS011;10356;50.544;9.642;2024-03-08T11:29:34;22.07;;;13.33;;
20393;SDS011;10356;50.544;9.642;2024-03-08T11:32:04;21.13;;;13.90;;
20393;SDS011;10356;50.544;9.642;2024-03-08T11:34:33;19.37;;;13.10;;
20393;SDS011;10356;50.544;9.642;2024-03-08T11:37:00;19.00;;;12.37;;
20393;SDS011;10356;50.544;9.642;2024-03-08T11:39:26;21.03;;;14.17;;
20393;SDS011;10356;50.544;9.642;2024-03-08T11:41:53;22.33;;;13.10;;
20393;SDS011;10356;50.544;9.642;2024-03-08T11:44:25;19.60;;;12.93;;
20393;SDS011;10356;50.544;9.642;2024-03-08T11:46:53;19.50;;;13.13;;
20393;SDS011;10356;50.544;9.642;2024-03-08T11:49:19;17.93;;;12.27;;
20393;SDS011;10356;50.544;9.642;2024-03-08T11:51:46;19.73;;;13.03;;
20393;SDS011;10356;50.544;9.642;2024-03-08T11:54:12;19.47;;;13.10;;
20393;SDS011;10356;50.544;9.642;2024-03-08T11:56:40;18.87;;;12.83;;
20393;SDS011;10356;50.544;9.642;2024-03-08T11:59:10;20.83;;;14.27;;
20393;SDS011;10356;50.544;9.642;2024-03-08T12:01:39;23.67;;;15.40;;
20393;SDS011;10356;50.544;9.642;2024-03-08T12:04:06;21.03;;;13.97;;
20393;SDS011;10356;50.544;9.642;2024-03-08T12:06:38;22.40;;;14.23;;
20393;SDS011;10356;50.544;9.642;2024-03-08T12:09:07;21.40;;;13.83;;
20393;SDS011;10356;50.544;9.642;2024-03-08T12:11:35;21.40;;;14.30;;
20393;SDS011;10356;50.544;9.642;2024-03-08T12:14:02;23.47;;;14.60;;
20393;SDS011;10356;50.544;9.642;2024-03-08T12:16:28;19.47;;;14.37;;
20393;SDS011;10356;50.544;9.642;2024-03-08T12:18:57;21.77;;;14.60;;
20393;SDS011;10356;50.544;9.642;2024-03-08T12:21:25;24.03;;;14.47;;
20393;SDS011;10356;50.544;9.642;2024-03-08T12:24:03;31.23;;;15.60;;
20393;SDS011;10356;50.544;9.642;2024-03-08T12:26:33;21.73;;;14.47;;
20393;SDS011;10356;50.544;9.642;2024-03-08T12:29:17;22.27;;;14.87;;
20393;SDS011;10356;50.544;9.642;2024-03-08T12:31:45;24.80;;;15.07;;
20393;SDS011;10356;50.544;9.642;2024-03-08T12:34:14;22.73;;;15.57;;
20393;SDS011;10356;50.544;9.642;2024-03-08T12:36:44;24.33;;;15.27;;
20393;SDS011;10356;50.544;9.642;2024-03-08T12:39:12;21.87;;;15.23;;
20393;SDS011;10356;50.544;9.642;2024-03-08T12:41:41;22.37;;;15.03;;
20393;SDS011;10356;50.544;9.642;2024-03-08T12:44:08;23.03;;;15.23;;
20393;SDS011;10356;50.544;9.642;2024-03-08T12:46:36;23.80;;;15.10;;
20393;SDS011;10356;50.544;9.642;2024-03-08T12:49:05;23.05;;;15.00;;
20393;SDS011;10356;50.544;9.642;2024-03-08T12:51:34;22.13;;;15.80;;
20393;SDS011;10356;50.544;9.642;2024-03-08T12:54:00;21.97;;;14.93;;
20393;SDS011;10356;50.544;9.642;2024-03-08T12:56:30;24.57;;;14.77;;
20393;SDS011;10356;50.544;9.642;2024-03-08T12:58:58;22.00;;;14.47;;
20393;SDS011;10356;50.544;9.642;2024-03-08T13:01:25;21.37;;;14.10;;
20393;SDS011;10356;50.544;9.642;2024-03-08T13:03:52;23.73;;;15.10;;
20393;SDS011;10356;50.544;9.642;2024-03-08T13:06:20;19.73;;;14.00;;
20393;SDS011;10356;50.544;9.642;2024-03-08T13:08:50;22.77;;;14.53;;
20393;SDS011;10356;50.544;9.642;2024-03-08T13:11:18;21.53;;;14.77;;
20393;SDS011;10356;50.544;9.642;2024-03-08T13:13:45;27.23;;;15.70;;
20393;SDS011;10356;50.544;9.642;2024-03-08T13:16:12;21.27;;;14.77;;
20393;SDS011;10356;50.544;9.642;2024-03-08T13:18:40;21.40;;;13.73;;
20393;SDS011;10356;50.544;9.642;2024-03-08T13:21:08;24.98;;;14.48;;
20393;SDS011;10356;50.544;9.642;2024-03-08T13:23:36;20.97;;;13.50;;
20393;SDS011;10356;50.544;9.642;2024-03-08T13:26:06;21.73;;;13.83;;
20393;SDS011;10356;50.544;9.642;2024-03-08T13:28:33;22.50;;;13.53;;
20393;SDS011;10356;50.544;9.642;2024-03-08T13:31:02;21.52;;;13.55;;
20393;SDS011;10356;50.544;9.642;2024-03-08T13:33:32;20.97;;;13.87;;
20393;SDS011;10356;50.544;9.642;2024-03-08T13:36:01;20.25;;;13.65;;
20393;SDS011;10356;50.544;9.642;2024-03-08T13:38:28;19.05;;;13.35;;
20393;SDS011;10356;50.544;9.642;2024-03-08T13:40:57;19.67;;;13.57;;
20393;SDS011;10356;50.544;9.642;2024-03-08T13:43:25;19.73;;;13.23;;
20393;SDS011;10356;50.544;9.642;2024-03-08T13:45:53;21.93;;;14.07;;
20393;SDS011;10356;50.544;9.642;2024-03-08T13:48:20;20.90;;;14.10;;
20393;SDS011;10356;50.544;9.642;2024-03-08T13:50:47;20.57;;;13.93;;
20393;SDS011;10356;50.544;9.642;2024-03-08T13:53:14;19.43;;;13.83;;
20393;SDS011;10356;50.544;9.642;2024-03-08T13:55:41;21.13;;;14.50;;
20393;SDS011;10356;50.544;9.642;2024-03-08T13:58:07;24.17;;;14.63;;
20393;SDS011;10356;50.544;9.642;2024-03-08T14:00:36;20.70;;;14.27;;
20393;SDS011;10356;50.544;9.642;2024-03-08T14:03:03;24.17;;;14.93;;
20393;SDS011;10356;50.544;9.642;2024-03-08T14:05:31;23.03;;;14.93;;
20393;SDS011;10356;50.544;9.642;2024-03-08T14:07:59;22.23;;;15.93;;
20393;SDS011;10356;50.544;9.642;2024-03-08T14:10:28;31.27;;;20.13;;
20393;SDS011;10356;50.544;9.642;2024-03-08T14:12:56;19.70;;;13.40;;
20393;SDS011;10356;50.544;9.642;2024-03-08T14:15:23;22.67;;;13.48;;
20393;SDS011;10356;50.544;9.642;2024-03-08T14:17:54;21.88;;;13.90;;
20393;SDS011;10356;50.544;9.642;2024-03-08T14:20:21;21.10;;;13.90;;
20393;SDS011;10356;50.544;9.642;2024-03-08T14:22:50;18.80;;;13.67;;
20393;SDS011;10356;50.544;9.642;2024-03-08T14:25:17;19.67;;;14.27;;
20393;SDS011;10356;50.544;9.642;2024-03-08T14:27:43;19.33;;;13.40;;